createdAt,value
2022-11-08T00:01:17.701Z,12.73
2022-11-08T00:05:17.908Z,12.20
2022-11-08T00:09:18.509Z,21.58
2022-11-08T00:13:18.826Z,12.70
2022-11-08T00:17:00.670Z,17.30
2022-11-08T00:20:42.619Z,13.63
2022-11-08T00:24:24.486Z,8.50
2022-11-08T00:28:06.292Z,15.82
2022-11-08T00:31:48.252Z,10.27
2022-11-08T00:35:30.043Z,8.55
2022-11-08T00:39:12.084Z,7.95
2022-11-08T00:42:53.898Z,11.85
2022-11-08T00:46:37.618Z,9.88
2022-11-08T00:50:19.435Z,12.07
2022-11-08T00:54:01.283Z,12.82
2022-11-08T00:57:59.235Z,10.45
2022-11-08T01:01:42.792Z,10.65
2022-11-08T01:05:24.688Z,14.52
2022-11-08T01:09:07.524Z,12.50
2022-11-08T01:12:49.335Z,13.25
2022-11-08T01:16:34.154Z,16.38
2022-11-08T01:20:16.071Z,7.65
2022-11-08T01:23:58.050Z,11.02
2022-11-08T01:27:39.895Z,10.40
2022-11-08T01:31:24.745Z,13.00
2022-11-08T01:35:07.170Z,6.50
2022-11-08T01:38:49.491Z,11.35
2022-11-08T01:42:32.798Z,9.98
2022-11-08T01:46:35.878Z,4.20
2022-11-08T01:50:19.056Z,10.65
2022-11-08T01:54:05.753Z,8.90
2022-11-08T01:57:58.304Z,12.82
2022-11-08T02:01:40.352Z,17.65
2022-11-08T02:05:26.544Z,11.77
2022-11-08T02:09:12.528Z,14.25
2022-11-08T02:12:56.121Z,8.77
2022-11-08T02:16:38.034Z,10.40
2022-11-08T02:20:19.990Z,10.65
2022-11-08T02:24:10.759Z,10.13
2022-11-08T02:27:52.655Z,14.27
2022-11-08T02:31:34.493Z,10.10
2022-11-08T02:35:20.644Z,9.57
2022-11-08T02:39:03.339Z,10.40
2022-11-08T02:42:45.290Z,15.52
2022-11-08T02:46:27.224Z,17.00
2022-11-08T02:50:09.528Z,12.55
2022-11-08T02:53:51.459Z,13.60
2022-11-08T02:57:33.416Z,15.25
2022-11-08T03:01:15.302Z,16.08
2022-11-08T03:04:57.156Z,10.55
2022-11-08T03:08:39.163Z,8.15
2022-11-08T03:12:21.112Z,12.95
2022-11-08T03:16:04.751Z,11.75
2022-11-08T03:19:46.568Z,18.60
2022-11-08T03:23:28.967Z,11.38
2022-11-08T03:27:10.784Z,15.68
2022-11-08T03:30:53.258Z,11.60
2022-11-08T03:34:35.091Z,10.63
2022-11-08T03:38:17.314Z,11.32
2022-11-08T03:42:03.002Z,7.68
2022-11-08T03:45:46.778Z,15.77
2022-11-08T03:49:28.621Z,12.85
2022-11-08T03:53:10.437Z,13.23
2022-11-08T03:56:52.269Z,11.20
2022-11-08T04:00:34.127Z,7.78
2022-11-08T04:04:16.012Z,7.38
2022-11-08T04:07:58.720Z,8.18
2022-11-08T04:11:59.058Z,7.85
2022-11-08T04:15:40.941Z,8.52
2022-11-08T04:19:41.605Z,6.13
2022-11-08T04:23:23.470Z,9.27
2022-11-08T04:27:05.297Z,5.18
2022-11-08T04:30:52.740Z,3.20
2022-11-08T04:34:34.587Z,9.55
2022-11-08T04:38:17.290Z,5.72
2022-11-08T04:42:02.512Z,6.75
2022-11-08T04:45:44.576Z,9.35
2022-11-08T04:49:26.395Z,6.35
2022-11-08T04:53:08.217Z,7.60
2022-11-08T04:56:50.076Z,8.75
2022-11-08T05:00:31.882Z,3.65
2022-11-08T05:04:13.704Z,7.78
2022-11-08T05:07:55.535Z,5.93
2022-11-08T05:11:37.338Z,4.03
2022-11-08T05:15:19.138Z,3.90
2022-11-08T05:19:01.371Z,6.03
2022-11-08T05:23:01.788Z,9.98
2022-11-08T05:26:46.672Z,4.93
2022-11-08T05:30:28.517Z,6.30
2022-11-08T05:34:10.505Z,5.13
2022-11-08T05:37:52.446Z,9.68
2022-11-08T05:41:34.268Z,7.72
2022-11-08T05:45:16.162Z,10.18
2022-11-08T05:48:58.023Z,9.85
2022-11-08T05:52:40.354Z,18.15
2022-11-08T05:56:22.251Z,14.50
2022-11-08T06:00:04.444Z,18.08
2022-11-08T06:03:47.346Z,16.60
2022-11-08T06:07:29.270Z,14.57
2022-11-08T06:11:14.253Z,22.85
2022-11-08T06:14:56.075Z,22.88
2022-11-08T06:18:38.979Z,22.20
2022-11-08T06:22:20.783Z,19.10
2022-11-08T06:26:03.182Z,23.42
2022-11-08T06:29:45.090Z,23.15
2022-11-08T06:33:27.366Z,22.17
2022-11-08T06:37:09.202Z,28.95
2022-11-08T06:40:51.050Z,26.00
2022-11-08T06:44:33.205Z,24.67
2022-11-08T06:48:15.077Z,23.05
2022-11-08T06:51:56.895Z,30.27
2022-11-08T06:55:38.795Z,25.80
2022-11-08T06:59:20.690Z,27.00
2022-11-08T07:03:03.789Z,29.85
2022-11-08T07:06:45.827Z,29.90
2022-11-08T07:10:30.724Z,27.15
2022-11-08T07:14:12.764Z,28.90
2022-11-08T07:17:54.703Z,26.17
2022-11-08T07:21:36.612Z,30.98
2022-11-08T07:25:18.431Z,20.98
2022-11-08T07:29:00.260Z,23.77
2022-11-08T07:32:42.140Z,16.42
2022-11-08T07:36:23.991Z,22.40
2022-11-08T07:40:06.555Z,18.38
2022-11-08T07:43:49.236Z,22.13
2022-11-08T07:47:31.262Z,23.85
2022-11-08T07:51:13.155Z,21.98
2022-11-08T07:54:55.039Z,18.10
2022-11-08T07:58:36.956Z,17.35
2022-11-08T08:02:19.047Z,22.70
2022-11-08T08:06:01.764Z,12.52
2022-11-08T08:09:43.811Z,14.10
2022-11-08T08:13:26.033Z,14.98
2022-11-08T08:17:07.874Z,17.92
2022-11-08T08:20:49.826Z,21.20
2022-11-08T08:24:31.733Z,10.35
2022-11-08T08:28:13.687Z,18.92
2022-11-08T08:31:56.220Z,17.45
2022-11-08T08:35:38.844Z,17.85
2022-11-08T08:39:20.691Z,14.32
2022-11-08T08:43:05.073Z,19.33
2022-11-08T08:46:47.080Z,21.52
2022-11-08T08:50:30.939Z,22.10
2022-11-08T08:54:14.827Z,25.25
2022-11-08T08:57:56.806Z,22.77
2022-11-08T09:01:38.833Z,15.55
2022-11-08T09:05:20.849Z,14.80
2022-11-08T09:09:02.684Z,22.02
2022-11-08T09:12:44.575Z,24.52
2022-11-08T09:16:26.395Z,23.40
2022-11-08T09:20:09.142Z,13.45
2022-11-08T09:23:51.011Z,26.60
2022-11-08T09:27:33.321Z,17.95
2022-11-08T09:31:15.419Z,26.67
2022-11-08T09:34:58.068Z,25.80
2022-11-08T09:38:39.958Z,24.95
2022-11-08T09:42:50.999Z,19.08
2022-11-08T09:46:38.698Z,19.05
2022-11-08T09:50:26.315Z,19.58
2022-11-08T09:54:19.567Z,19.00
2022-11-08T09:58:23.536Z,20.02
2022-11-08T10:02:20.116Z,15.23
2022-11-08T10:10:05.548Z,15.52
2022-11-08T10:14:20.772Z,19.05
2022-11-08T10:18:17.753Z,19.05
2022-11-08T10:22:08.845Z,13.45
2022-11-08T10:26:03.740Z,18.67
2022-11-08T10:29:46.478Z,13.98
2022-11-08T10:33:55.385Z,23.10
2022-11-08T10:37:37.709Z,15.82
2022-11-08T10:41:45.070Z,15.68
2022-11-08T10:45:26.975Z,14.27
2022-11-08T10:49:13.204Z,14.43
2022-11-08T10:53:03.002Z,13.88
2022-11-08T10:56:56.813Z,12.10
2022-11-08T11:00:38.868Z,13.38
2022-11-08T11:04:32.656Z,11.88
2022-11-08T11:08:16.967Z,12.93
2022-11-08T11:12:08.263Z,15.75
2022-11-08T11:15:56.143Z,14.85
2022-11-08T11:19:38.023Z,20.13
2022-11-08T11:23:19.972Z,11.93
2022-11-08T11:27:07.472Z,12.88
2022-11-08T11:31:03.729Z,7.70
2022-11-08T11:34:51.111Z,8.60
2022-11-08T11:38:44.202Z,10.15
2022-11-08T11:42:51.392Z,9.70
2022-11-08T11:47:21.358Z,10.40
2022-11-08T11:51:03.374Z,9.20
2022-11-08T11:54:47.811Z,8.77
2022-11-08T11:58:38.427Z,9.25
2022-11-08T12:02:38.606Z,6.20
2022-11-08T12:06:48.859Z,3.58
2022-11-08T12:10:50.071Z,5.15
2022-11-08T12:14:34.711Z,3.03
2022-11-08T12:18:42.136Z,3.58
2022-11-08T12:22:37.452Z,6.22
2022-11-08T12:26:28.483Z,3.53
2022-11-08T12:30:19.929Z,5.63
2022-11-08T12:34:22.738Z,9.10
2022-11-08T12:38:25.468Z,10.02
2022-11-08T12:42:17.958Z,11.65
2022-11-08T12:46:18.232Z,17.27
2022-11-08T12:50:29.954Z,17.73
2022-11-08T12:54:14.807Z,15.35
2022-11-08T12:57:59.305Z,11.88
2022-11-08T13:01:41.607Z,12.82
2022-11-08T13:05:37.621Z,11.27
2022-11-08T13:09:57.275Z,13.07
2022-11-08T13:13:58.511Z,10.90
2022-11-08T13:17:40.345Z,8.90
2022-11-08T13:21:28.160Z,13.95
2022-11-08T13:25:13.082Z,6.07
2022-11-08T13:28:55.008Z,12.13
2022-11-08T13:32:59.518Z,18.27
2022-11-08T13:37:13.682Z,11.07
2022-11-08T13:41:20.687Z,10.48
2022-11-08T13:45:18.033Z,13.43
2022-11-08T13:49:14.025Z,8.88
2022-11-08T13:53:19.256Z,11.73
2022-11-08T13:57:02.050Z,13.10
2022-11-08T14:00:46.230Z,11.10
2022-11-08T14:04:38.823Z,13.77
2022-11-08T14:08:22.138Z,9.48
2022-11-08T14:12:37.447Z,13.85
2022-11-08T14:16:24.188Z,12.40
2022-11-08T14:20:23.084Z,9.90
2022-11-08T14:24:05.222Z,9.02
2022-11-08T14:27:47.100Z,11.38
2022-11-08T14:31:32.974Z,10.68
2022-11-08T14:35:25.603Z,15.00
2022-11-08T14:39:18.740Z,16.45
2022-11-08T14:43:00.594Z,17.13
2022-11-08T14:46:42.660Z,9.25
2022-11-08T14:50:31.158Z,15.32
2022-11-08T14:54:22.219Z,12.32
2022-11-08T14:58:15.857Z,11.68
2022-11-08T15:01:58.740Z,16.88
2022-11-08T15:05:47.286Z,16.13
2022-11-08T15:09:32.457Z,11.40
2022-11-08T15:13:14.340Z,12.98
2022-11-08T15:17:01.719Z,12.05
2022-11-08T15:20:55.300Z,13.00
2022-11-08T15:24:39.622Z,13.77
2022-11-08T15:28:23.037Z,14.52
2022-11-08T15:32:05.387Z,13.38
2022-11-08T15:35:47.623Z,11.52
2022-11-08T15:39:39.987Z,13.85
2022-11-08T15:43:33.923Z,15.52
2022-11-08T15:47:41.981Z,10.40
2022-11-08T15:51:23.907Z,10.90
2022-11-08T15:55:06.306Z,15.98
2022-11-08T15:58:48.154Z,17.75
2022-11-08T16:02:29.969Z,15.25
2022-11-08T16:06:15.279Z,15.95
2022-11-08T16:09:57.103Z,15.90
2022-11-08T16:13:39.578Z,20.08
2022-11-08T16:17:21.390Z,12.88
2022-11-08T16:21:03.339Z,11.10
2022-11-08T16:24:45.137Z,12.13
2022-11-08T16:28:40.229Z,16.30
2022-11-08T16:32:22.103Z,18.70
2022-11-08T16:36:14.448Z,18.25
2022-11-08T16:39:56.302Z,18.27
2022-11-08T16:43:38.130Z,20.95
2022-11-08T16:47:20.268Z,18.23
2022-11-08T16:51:04.414Z,19.55
2022-11-08T16:54:47.147Z,14.20
2022-11-08T16:58:29.094Z,20.48
2022-11-08T17:02:29.310Z,11.85
2022-11-08T17:06:18.865Z,19.40
2022-11-08T17:10:00.752Z,22.25
2022-11-08T17:13:42.592Z,26.85
2022-11-08T17:17:24.418Z,16.73
2022-11-08T17:21:42.572Z,27.85
2022-11-08T17:25:18.756Z,18.35
2022-11-08T17:29:00.601Z,19.70
2022-11-08T17:32:42.603Z,19.77
2022-11-08T17:36:24.715Z,16.63
2022-11-08T17:40:07.928Z,17.95
2022-11-08T17:43:50.029Z,21.33
2022-11-08T17:47:31.848Z,25.65
2022-11-08T17:51:15.611Z,20.85
2022-11-08T17:54:57.512Z,17.60
2022-11-08T17:58:40.443Z,21.77
2022-11-08T18:02:22.582Z,25.27
2022-11-08T18:06:12.146Z,22.50
2022-11-08T18:09:53.958Z,17.77
2022-11-08T18:13:35.814Z,18.67
2022-11-08T18:17:17.683Z,17.67
2022-11-08T18:20:59.658Z,16.02
2022-11-08T18:24:42.733Z,19.05
2022-11-08T18:28:27.142Z,17.10
2022-11-08T18:32:09.135Z,23.30
2022-11-08T18:35:51.235Z,15.93
2022-11-08T18:39:33.059Z,22.67
2022-11-08T18:43:14.897Z,14.18
2022-11-08T18:46:56.830Z,18.10
2022-11-08T18:50:38.643Z,18.02
2022-11-08T18:54:20.619Z,16.35
2022-11-08T18:58:02.581Z,16.95
2022-11-08T19:01:44.505Z,16.15
2022-11-08T19:05:26.402Z,24.75
2022-11-08T19:09:08.287Z,15.95
2022-11-08T19:12:50.118Z,17.13
2022-11-08T19:16:32.040Z,22.10
2022-11-08T19:20:13.848Z,20.65
2022-11-08T19:23:59.361Z,21.35
2022-11-08T19:27:41.188Z,16.20
2022-11-08T19:31:24.801Z,12.60
2022-11-08T19:35:07.175Z,12.65
2022-11-08T19:38:49.638Z,15.43
2022-11-08T19:42:31.488Z,10.90
2022-11-08T19:46:26.029Z,18.70
2022-11-08T19:50:08.011Z,8.82
2022-11-08T19:53:50.390Z,17.85
2022-11-08T19:57:35.008Z,15.52
2022-11-08T20:01:22.607Z,13.95
2022-11-08T20:05:04.988Z,21.08
2022-11-08T20:08:51.833Z,10.63
2022-11-08T20:12:33.683Z,13.50
2022-11-08T20:16:26.990Z,13.40
2022-11-08T20:20:09.143Z,14.77
2022-11-08T20:23:51.078Z,14.65
2022-11-08T20:27:32.936Z,18.40
2022-11-08T20:31:22.787Z,18.98
2022-11-08T20:35:05.357Z,15.88
2022-11-08T20:38:47.400Z,13.65
2022-11-08T20:42:29.275Z,9.30
2022-11-08T20:46:13.661Z,20.20
2022-11-08T20:49:55.543Z,19.23
2022-11-08T20:53:37.789Z,14.90
2022-11-08T20:57:19.841Z,15.32
2022-11-08T21:01:03.785Z,15.93
2022-11-08T21:04:45.636Z,15.93
2022-11-08T21:08:58.597Z,13.75
2022-11-08T21:12:31.630Z,15.00
2022-11-08T21:16:29.219Z,13.00
2022-11-08T21:20:12.825Z,18.48
2022-11-08T21:23:54.890Z,18.63
2022-11-08T21:27:37.202Z,13.13
2022-11-08T21:31:19.328Z,11.25
2022-11-08T21:35:01.109Z,10.35
2022-11-08T21:38:42.952Z,11.63
2022-11-08T21:42:24.812Z,9.32
2022-11-08T21:46:21.383Z,16.13
2022-11-08T21:50:03.828Z,14.57
2022-11-08T21:53:53.922Z,12.15
2022-11-08T21:57:36.840Z,12.82
2022-11-08T22:01:18.978Z,12.75
2022-11-08T22:05:00.875Z,13.80
2022-11-08T22:08:42.659Z,7.13
2022-11-08T22:12:24.504Z,16.33
2022-11-08T22:16:06.762Z,9.77
2022-11-08T22:19:48.923Z,14.68
2022-11-08T22:23:30.767Z,11.07
2022-11-08T22:27:12.651Z,10.52
2022-11-08T22:30:54.707Z,12.95
2022-11-08T22:34:36.563Z,13.25
2022-11-08T22:38:18.682Z,11.27
2022-11-08T22:42:00.661Z,12.75
2022-11-08T22:45:43.743Z,15.23
2022-11-08T22:49:25.584Z,18.33
2022-11-08T22:53:08.254Z,13.10
2022-11-08T22:56:50.364Z,13.95
2022-11-08T23:00:32.216Z,16.48
2022-11-08T23:04:14.089Z,8.07
2022-11-08T23:07:55.888Z,10.55
2022-11-08T23:11:56.195Z,14.65
2022-11-08T23:15:56.891Z,16.52
2022-11-08T23:19:57.471Z,14.40
2022-11-08T23:23:59.779Z,12.10
2022-11-08T23:28:00.344Z,11.18
2022-11-08T23:31:42.127Z,16.33
2022-11-08T23:35:24.247Z,12.52
2022-11-08T23:39:06.179Z,11.18
2022-11-08T23:43:26.445Z,9.95
2022-11-08T23:47:10.412Z,11.15
2022-11-08T23:50:54.071Z,10.93
2022-11-08T23:54:35.941Z,10.75
2022-11-08T23:58:18.189Z,8.93
